AXY6PY EDDF-GCTS
Flight info
| Callsign | AXY6PY |
|---|---|
| Flight time | 4h 35m |
| Altitude | 35000 |
| Route | SOBRA2L/18 SOBRA Y180 DIK UN857 TOLVU DCT RAPOR/N0464F370 DCT ESTOC UT300 PON UN872 ERIGA DCT FUJTI DCT BAKUP DCT BATAX DCT BABEX DCT EMPAD DCT BEXAL UN866 KONBA |
| Aircraft | A343/M-SDE2E3FGHIJ4J5M1RWXY/LB1D1 |
Departure
| Time | 2026-04-15 11:49 |
|---|---|
| Airport | Frankfurt Main Airport (EDDF) |
Arrival
| Time | 2026-04-15 16:24 |
|---|---|
| Airport | Tenerife Sur Airport (GCTS) |
| Time | Latitude | Longitude | Altitude | Speed | Heading |
|---|---|---|---|---|---|
| 2026-04-15 10:52 | 50.03802 | 8.54487 | 350 ft | 0 kts | 159° |
| 2026-04-15 11:41 | 50.03801 | 8.54488 | 350 ft | 1 kts | 159° |
| 2026-04-15 11:41 | 50.03794 | 8.54492 | 359 ft | 2 kts | 159° |
| 2026-04-15 11:41 | 50.03768 | 8.54507 | 353 ft | 5 kts | 159° |
| 2026-04-15 11:41 | 50.03720 | 8.54511 | 352 ft | 8 kts | 201° |
| 2026-04-15 11:42 | 50.03683 | 8.54415 | 357 ft | 13 kts | 248° |
| 2026-04-15 11:42 | 50.03648 | 8.54274 | 354 ft | 15 kts | 250° |
| 2026-04-15 11:42 | 50.03611 | 8.54119 | 351 ft | 15 kts | 248° |
| 2026-04-15 11:42 | 50.03571 | 8.53958 | 355 ft | 17 kts | 249° |
| 2026-04-15 11:43 | 50.03529 | 8.53780 | 351 ft | 18 kts | 250° |
| 2026-04-15 11:43 | 50.03486 | 8.53599 | 351 ft | 18 kts | 250° |
| 2026-04-15 11:43 | 50.03442 | 8.53416 | 353 ft | 18 kts | 250° |
| 2026-04-15 11:43 | 50.03398 | 8.53230 | 337 ft | 19 kts | 250° |
| 2026-04-15 11:44 | 50.03352 | 8.53037 | 336 ft | 19 kts | 250° |
| 2026-04-15 11:44 | 50.03307 | 8.52851 | 336 ft | 14 kts | 249° |
| 2026-04-15 11:44 | 50.03294 | 8.52796 | 334 ft | 3 kts | 249° |
| 2026-04-15 11:44 | 50.03287 | 8.52767 | 335 ft | 0 kts | 249° |
| 2026-04-15 11:46 | 50.03286 | 8.52765 | 335 ft | 1 kts | 249° |
| 2026-04-15 11:47 | 50.03282 | 8.52746 | 334 ft | 3 kts | 249° |
| 2026-04-15 11:47 | 50.03268 | 8.52690 | 336 ft | 8 kts | 249° |
| 2026-04-15 11:47 | 50.03247 | 8.52614 | 334 ft | 7 kts | 231° |
| 2026-04-15 11:47 | 50.03205 | 8.52596 | 336 ft | 6 kts | 179° |
| 2026-04-15 11:48 | 50.03198 | 8.52597 | 335 ft | 0 kts | 179° |
| 2026-04-15 11:48 | 50.03195 | 8.52597 | 336 ft | 3 kts | 179° |
| 2026-04-15 11:48 | 50.03052 | 8.52600 | 335 ft | 52 kts | 179° |
| 2026-04-15 11:48 | 50.02451 | 8.52603 | 339 ft | 119 kts | 180° |
| 2026-04-15 11:49 | 50.01433 | 8.52615 | 348 ft | 172 kts | 179° |
| 2026-04-15 11:49 | 50.00210 | 8.52629 | 998 ft | 173 kts | 179° |
| 2026-04-15 11:49 | 49.99010 | 8.52680 | 1776 ft | 179 kts | 176° |
| 2026-04-15 11:49 | 49.97660 | 8.52783 | 2179 ft | 208 kts | 175° |
| 2026-04-15 11:50 | 49.96114 | 8.52903 | 2538 ft | 234 kts | 176° |
| 2026-04-15 11:50 | 49.94451 | 8.53024 | 3171 ft | 243 kts | 176° |
| 2026-04-15 11:50 | 49.92748 | 8.53142 | 3916 ft | 247 kts | 176° |
| 2026-04-15 11:50 | 49.91025 | 8.53261 | 4813 ft | 246 kts | 176° |
| 2026-04-15 11:51 | 49.89324 | 8.53379 | 5731 ft | 246 kts | 176° |
| 2026-04-15 11:51 | 49.87607 | 8.53394 | 6506 ft | 249 kts | 186° |
| 2026-04-15 11:51 | 49.85898 | 8.52745 | 7110 ft | 259 kts | 199° |
| 2026-04-15 11:51 | 49.84177 | 8.51778 | 7724 ft | 267 kts | 200° |
| 2026-04-15 11:52 | 49.82419 | 8.50758 | 8428 ft | 271 kts | 200° |
| 2026-04-15 11:52 | 49.80636 | 8.49734 | 9126 ft | 276 kts | 200° |
| 2026-04-15 11:52 | 49.78835 | 8.48653 | 9799 ft | 280 kts | 205° |
| 2026-04-15 11:52 | 49.77228 | 8.46945 | 10432 ft | 284 kts | 226° |
| 2026-04-15 11:53 | 49.76169 | 8.44343 | 10701 ft | 301 kts | 252° |
| 2026-04-15 11:53 | 49.75969 | 8.41058 | 10931 ft | 319 kts | 277° |
| 2026-04-15 11:53 | 49.76444 | 8.37615 | 11180 ft | 335 kts | 284° |
| 2026-04-15 11:53 | 49.77055 | 8.34051 | 11423 ft | 351 kts | 284° |
| 2026-04-15 11:54 | 49.77686 | 8.30346 | 11821 ft | 360 kts | 284° |
| 2026-04-15 11:54 | 49.78314 | 8.26562 | 12386 ft | 365 kts | 283° |
| 2026-04-15 11:54 | 49.78940 | 8.22742 | 13003 ft | 368 kts | 283° |
| 2026-04-15 11:54 | 49.79567 | 8.18888 | 13633 ft | 371 kts | 283° |
| 2026-04-15 11:55 | 49.80191 | 8.15000 | 14248 ft | 374 kts | 283° |
| 2026-04-15 11:55 | 49.80815 | 8.11089 | 14851 ft | 375 kts | 283° |
| 2026-04-15 11:55 | 49.81442 | 8.07147 | 15393 ft | 379 kts | 283° |
| 2026-04-15 11:55 | 49.82073 | 8.03166 | 15913 ft | 383 kts | 283° |
| 2026-04-15 11:56 | 49.82710 | 7.99143 | 16467 ft | 386 kts | 283° |
| 2026-04-15 11:56 | 49.83347 | 7.95090 | 16998 ft | 389 kts | 283° |
| 2026-04-15 11:56 | 49.83990 | 7.90996 | 17518 ft | 393 kts | 283° |
| 2026-04-15 11:56 | 49.84637 | 7.86862 | 18089 ft | 395 kts | 283° |
| 2026-04-15 11:57 | 49.85275 | 7.82778 | 18587 ft | 399 kts | 283° |
| 2026-04-15 11:57 | 49.86600 | 7.74301 | 19560 ft | 404 kts | 283° |
| 2026-04-15 11:57 | 49.87273 | 7.70052 | 20004 ft | 407 kts | 283° |
| 2026-04-15 11:58 | 49.87943 | 7.65796 | 20509 ft | 408 kts | 283° |
| 2026-04-15 11:58 | 49.88610 | 7.61491 | 20926 ft | 412 kts | 283° |
| 2026-04-15 11:58 | 49.89276 | 7.57164 | 21405 ft | 413 kts | 283° |
| 2026-04-15 11:58 | 49.89933 | 7.52873 | 21853 ft | 416 kts | 283° |
| 2026-04-15 11:59 | 49.90602 | 7.48494 | 22311 ft | 418 kts | 283° |
| 2026-04-15 11:59 | 49.91273 | 7.44101 | 22755 ft | 420 kts | 283° |
| 2026-04-15 11:59 | 49.91948 | 7.39671 | 23135 ft | 424 kts | 283° |
| 2026-04-15 11:59 | 49.92627 | 7.35209 | 23563 ft | 426 kts | 283° |
| 2026-04-15 12:00 | 49.93309 | 7.30714 | 23912 ft | 429 kts | 283° |
| 2026-04-15 12:00 | 49.93993 | 7.26201 | 24263 ft | 431 kts | 283° |
| 2026-04-15 12:00 | 49.94677 | 7.21665 | 24634 ft | 432 kts | 283° |
| 2026-04-15 12:00 | 49.95361 | 7.17123 | 24980 ft | 433 kts | 283° |
| 2026-04-15 12:01 | 49.96047 | 7.12550 | 25324 ft | 435 kts | 283° |
| 2026-04-15 12:01 | 49.96733 | 7.07963 | 25649 ft | 437 kts | 283° |
| 2026-04-15 12:01 | 49.97420 | 7.03359 | 25961 ft | 438 kts | 283° |
| 2026-04-15 12:01 | 49.98107 | 6.98743 | 26289 ft | 440 kts | 283° |
| 2026-04-15 12:02 | 49.98765 | 6.94085 | 26609 ft | 442 kts | 280° |
| 2026-04-15 12:02 | 49.99119 | 6.89345 | 26970 ft | 443 kts | 273° |
| 2026-04-15 12:02 | 49.99147 | 6.84552 | 27260 ft | 445 kts | 270° |
| 2026-04-15 12:02 | 49.99070 | 6.79727 | 27519 ft | 447 kts | 269° |
| 2026-04-15 12:03 | 49.98938 | 6.74889 | 27822 ft | 449 kts | 268° |
| 2026-04-15 12:03 | 49.98780 | 6.70040 | 28093 ft | 451 kts | 268° |
| 2026-04-15 12:03 | 49.98615 | 6.65230 | 28354 ft | 452 kts | 268° |
| 2026-04-15 12:03 | 49.98381 | 6.60349 | 28616 ft | 455 kts | 264° |
| 2026-04-15 12:04 | 49.97785 | 6.55503 | 28871 ft | 458 kts | 256° |
| 2026-04-15 12:04 | 49.96768 | 6.50795 | 29120 ft | 461 kts | 251° |
| 2026-04-15 12:04 | 49.95571 | 6.46160 | 29368 ft | 464 kts | 249° |
| 2026-04-15 12:04 | 49.94297 | 6.41543 | 29603 ft | 466 kts | 248° |
| 2026-04-15 12:05 | 49.92987 | 6.36935 | 29845 ft | 468 kts | 248° |
| 2026-04-15 12:05 | 49.91664 | 6.32322 | 30226 ft | 466 kts | 248° |
| 2026-04-15 12:05 | 49.90351 | 6.27747 | 30627 ft | 463 kts | 248° |
| 2026-04-15 12:05 | 49.89030 | 6.23200 | 30917 ft | 462 kts | 247° |
| 2026-04-15 12:06 | 49.87704 | 6.18663 | 31183 ft | 462 kts | 248° |
| 2026-04-15 12:06 | 49.86323 | 6.14166 | 31447 ft | 462 kts | 243° |
| 2026-04-15 12:06 | 49.84640 | 6.09922 | 31732 ft | 463 kts | 239° |
| 2026-04-15 12:06 | 49.82840 | 6.05784 | 31999 ft | 462 kts | 238° |
| 2026-04-15 12:07 | 49.81001 | 6.01702 | 32248 ft | 462 kts | 237° |
| 2026-04-15 12:07 | 49.79135 | 5.97642 | 32462 ft | 463 kts | 237° |
| 2026-04-15 12:07 | 49.77258 | 5.93592 | 32700 ft | 462 kts | 237° |
| 2026-04-15 12:07 | 49.75432 | 5.89512 | 32961 ft | 460 kts | 240° |
| 2026-04-15 12:08 | 49.73915 | 5.85174 | 33237 ft | 456 kts | 248° |
| 2026-04-15 12:08 | 49.72715 | 5.80660 | 33628 ft | 452 kts | 250° |
| 2026-04-15 12:08 | 49.71607 | 5.76132 | 33916 ft | 450 kts | 251° |
| 2026-04-15 12:08 | 49.70542 | 5.71594 | 34121 ft | 450 kts | 252° |
| 2026-04-15 12:09 | 49.69496 | 5.67044 | 34334 ft | 449 kts | 252° |
| 2026-04-15 12:09 | 49.68466 | 5.62556 | 34524 ft | 449 kts | 252° |
| 2026-04-15 12:09 | 49.67421 | 5.58023 | 34712 ft | 448 kts | 252° |
| 2026-04-15 12:09 | 49.66371 | 5.53502 | 34909 ft | 448 kts | 252° |
| 2026-04-15 12:10 | 49.65313 | 5.48975 | 35081 ft | 447 kts | 252° |
| 2026-04-15 12:10 | 49.64251 | 5.44455 | 35203 ft | 448 kts | 252° |
| 2026-04-15 12:10 | 49.63183 | 5.39923 | 35217 ft | 450 kts | 252° |
| 2026-04-15 12:11 | 49.61106 | 5.30873 | 35216 ft | 445 kts | 253° |
| 2026-04-15 12:11 | 49.59239 | 5.21796 | 35215 ft | 443 kts | 257° |
| 2026-04-15 12:12 | 49.57798 | 5.12556 | 35215 ft | 443 kts | 258° |
| 2026-04-15 12:12 | 49.56407 | 5.03299 | 35213 ft | 443 kts | 258° |
| 2026-04-15 12:13 | 49.55009 | 4.94050 | 35213 ft | 444 kts | 258° |
| 2026-04-15 12:13 | 49.53596 | 4.84805 | 35213 ft | 441 kts | 257° |
| 2026-04-15 12:14 | 49.52182 | 4.75633 | 35211 ft | 440 kts | 257° |
| 2026-04-15 12:14 | 49.50770 | 4.66530 | 35211 ft | 440 kts | 257° |
| 2026-04-15 12:15 | 49.49340 | 4.57360 | 35211 ft | 440 kts | 257° |
| 2026-04-15 12:15 | 49.47905 | 4.48208 | 35211 ft | 440 kts | 257° |
| 2026-04-15 12:16 | 49.46464 | 4.39062 | 35207 ft | 438 kts | 256° |
| 2026-04-15 12:16 | 49.45022 | 4.29974 | 35208 ft | 437 kts | 256° |
| 2026-04-15 12:17 | 49.43576 | 4.20901 | 35211 ft | 437 kts | 256° |
| 2026-04-15 12:17 | 49.42122 | 4.11832 | 35211 ft | 437 kts | 256° |
| 2026-04-15 12:18 | 49.40670 | 4.02821 | 35203 ft | 437 kts | 256° |
| 2026-04-15 12:18 | 49.39201 | 3.93758 | 35203 ft | 437 kts | 256° |
| 2026-04-15 12:19 | 49.37725 | 3.84699 | 35195 ft | 437 kts | 256° |
| 2026-04-15 12:19 | 49.36242 | 3.75651 | 35195 ft | 437 kts | 256° |
| 2026-04-15 12:20 | 49.34754 | 3.66609 | 35190 ft | 437 kts | 256° |
| 2026-04-15 12:20 | 49.33258 | 3.57574 | 35189 ft | 437 kts | 256° |
| 2026-04-15 12:21 | 49.31755 | 3.48543 | 35180 ft | 435 kts | 255° |
| 2026-04-15 12:21 | 49.30256 | 3.39586 | 35182 ft | 434 kts | 255° |
| 2026-04-15 12:22 | 49.28761 | 3.30701 | 35176 ft | 434 kts | 255° |
| 2026-04-15 12:22 | 49.27249 | 3.21760 | 35176 ft | 434 kts | 255° |
| 2026-04-15 12:23 | 49.25730 | 3.12820 | 35167 ft | 434 kts | 255° |
| 2026-04-15 12:23 | 49.24204 | 3.03884 | 35172 ft | 433 kts | 254° |
| 2026-04-15 12:24 | 49.22678 | 2.95000 | 35171 ft | 431 kts | 254° |
| 2026-04-15 12:24 | 49.21146 | 2.86119 | 35174 ft | 432 kts | 254° |
| 2026-04-15 12:25 | 49.19607 | 2.77247 | 35175 ft | 432 kts | 254° |
| 2026-04-15 12:25 | 49.18062 | 2.68387 | 35178 ft | 431 kts | 253° |
| 2026-04-15 12:26 | 49.16510 | 2.59528 | 35180 ft | 430 kts | 253° |
| 2026-04-15 12:26 | 49.14963 | 2.50738 | 35180 ft | 427 kts | 253° |
| 2026-04-15 12:27 | 49.13425 | 2.42024 | 35180 ft | 428 kts | 253° |
| 2026-04-15 12:27 | 49.12366 | 2.33071 | 35179 ft | 429 kts | 259° |
| 2026-04-15 12:28 | 49.11508 | 2.24042 | 35181 ft | 430 kts | 259° |
| 2026-04-15 12:28 | 49.10680 | 2.15016 | 35185 ft | 429 kts | 258° |
| 2026-04-15 12:29 | 49.09762 | 2.06053 | 35184 ft | 426 kts | 254° |
| 2026-04-15 12:29 | 49.07813 | 1.97582 | 35184 ft | 422 kts | 245° |
| 2026-04-15 12:30 | 49.05413 | 1.89417 | 35177 ft | 423 kts | 244° |
| 2026-04-15 12:30 | 49.02931 | 1.81292 | 35178 ft | 423 kts | 243° |
| 2026-04-15 12:31 | 49.00448 | 1.73163 | 35177 ft | 423 kts | 243° |
| 2026-04-15 12:31 | 48.98000 | 1.65114 | 35165 ft | 420 kts | 243° |
| 2026-04-15 12:32 | 48.95543 | 1.57047 | 35162 ft | 420 kts | 243° |
| 2026-04-15 12:32 | 48.93495 | 1.50343 | 35160 ft | 420 kts | 243° |
| 2026-04-15 12:33 | 48.91030 | 1.42296 | 35157 ft | 420 kts | 243° |
| 2026-04-15 12:33 | 48.88558 | 1.34253 | 35156 ft | 420 kts | 243° |
| 2026-04-15 12:34 | 48.86081 | 1.26217 | 35160 ft | 419 kts | 242° |
| 2026-04-15 12:34 | 48.83606 | 1.18219 | 35151 ft | 419 kts | 242° |
| 2026-04-15 12:35 | 48.81121 | 1.10213 | 35159 ft | 419 kts | 242° |
| 2026-04-15 12:35 | 48.78633 | 1.02223 | 35149 ft | 419 kts | 242° |
| 2026-04-15 12:36 | 48.76139 | 0.94240 | 35149 ft | 419 kts | 242° |
| 2026-04-15 12:36 | 48.73441 | 0.86434 | 35184 ft | 417 kts | 237° |
| 2026-04-15 12:37 | 48.70478 | 0.78970 | 35155 ft | 416 kts | 236° |
| 2026-04-15 12:37 | 48.67446 | 0.71510 | 35151 ft | 416 kts | 236° |
| 2026-04-15 12:38 | 48.64411 | 0.64071 | 35143 ft | 415 kts | 236° |
| 2026-04-15 12:38 | 48.61363 | 0.56603 | 35147 ft | 420 kts | 236° |
| 2026-04-15 12:39 | 48.58288 | 0.49078 | 35156 ft | 421 kts | 236° |
| 2026-04-15 12:39 | 48.55210 | 0.41566 | 35178 ft | 421 kts | 237° |
| 2026-04-15 12:40 | 48.52131 | 0.34072 | 35152 ft | 419 kts | 237° |
| 2026-04-15 12:40 | 48.49055 | 0.26606 | 35151 ft | 419 kts | 236° |
| 2026-04-15 12:41 | 48.45973 | 0.19148 | 35154 ft | 419 kts | 236° |
| 2026-04-15 12:41 | 48.42886 | 0.11698 | 35137 ft | 419 kts | 237° |
| 2026-04-15 12:42 | 48.39794 | 0.04256 | 35146 ft | 420 kts | 237° |
| 2026-04-15 12:42 | 48.36692 | -0.03188 | 35164 ft | 420 kts | 236° |
| 2026-04-15 12:43 | 48.33445 | -0.10425 | 35146 ft | 416 kts | 232° |
| 2026-04-15 12:43 | 48.29924 | -0.17311 | 35157 ft | 415 kts | 231° |
| 2026-04-15 12:44 | 48.26403 | -0.24182 | 35153 ft | 415 kts | 232° |
| 2026-04-15 12:44 | 48.22925 | -0.31042 | 35156 ft | 415 kts | 232° |
| 2026-04-15 12:45 | 48.19400 | -0.37914 | 35158 ft | 416 kts | 232° |
| 2026-04-15 12:45 | 48.15869 | -0.44790 | 35158 ft | 416 kts | 232° |
| 2026-04-15 12:46 | 48.12339 | -0.51664 | 35158 ft | 416 kts | 232° |
| 2026-04-15 12:46 | 48.08808 | -0.58532 | 35157 ft | 416 kts | 232° |
| 2026-04-15 12:47 | 48.05273 | -0.65388 | 35158 ft | 416 kts | 232° |
| 2026-04-15 12:47 | 48.01755 | -0.72195 | 35157 ft | 416 kts | 232° |
| 2026-04-15 12:48 | 47.98210 | -0.79033 | 35157 ft | 417 kts | 232° |
| 2026-04-15 12:48 | 47.94652 | -0.85883 | 35182 ft | 417 kts | 232° |
| 2026-04-15 12:49 | 47.91105 | -0.92693 | 35159 ft | 414 kts | 232° |
| 2026-04-15 12:49 | 47.87566 | -0.99470 | 35170 ft | 414 kts | 232° |
| 2026-04-15 12:50 | 47.84028 | -1.06229 | 35171 ft | 414 kts | 232° |
| 2026-04-15 12:50 | 47.80484 | -1.12983 | 35172 ft | 414 kts | 232° |
| 2026-04-15 12:51 | 47.76938 | -1.19724 | 35181 ft | 415 kts | 232° |
| 2026-04-15 12:51 | 47.73375 | -1.26481 | 35207 ft | 415 kts | 232° |
| 2026-04-15 12:52 | 47.69816 | -1.33213 | 35180 ft | 414 kts | 232° |
| 2026-04-15 12:52 | 47.66260 | -1.39922 | 35181 ft | 413 kts | 232° |
| 2026-04-15 12:53 | 47.62721 | -1.46583 | 35182 ft | 413 kts | 232° |
| 2026-04-15 12:53 | 47.59154 | -1.53272 | 35183 ft | 413 kts | 231° |
| 2026-04-15 12:54 | 47.55356 | -1.59680 | 35185 ft | 415 kts | 228° |
| 2026-04-15 12:54 | 47.51432 | -1.65946 | 35190 ft | 415 kts | 228° |
| 2026-04-15 12:55 | 47.47526 | -1.72247 | 35191 ft | 414 kts | 229° |
| 2026-04-15 12:55 | 47.43679 | -1.78526 | 35195 ft | 412 kts | 229° |
| 2026-04-15 12:56 | 47.39856 | -1.84780 | 35188 ft | 412 kts | 229° |
| 2026-04-15 12:56 | 47.35954 | -1.90987 | 35166 ft | 413 kts | 225° |
| 2026-04-15 12:57 | 47.31329 | -1.96101 | 35185 ft | 418 kts | 216° |
| 2026-04-15 12:57 | 47.26379 | -2.00615 | 35183 ft | 419 kts | 214° |
| 2026-04-15 12:58 | 47.21376 | -2.05026 | 35182 ft | 419 kts | 214° |
| 2026-04-15 12:58 | 47.16375 | -2.09442 | 35186 ft | 418 kts | 215° |
| 2026-04-15 12:59 | 47.08929 | -2.16050 | 35187 ft | 417 kts | 215° |
| 2026-04-15 12:59 | 47.03991 | -2.20431 | 35194 ft | 418 kts | 215° |
| 2026-04-15 13:00 | 46.99011 | -2.24837 | 35193 ft | 418 kts | 215° |
| 2026-04-15 13:00 | 46.94033 | -2.29231 | 35183 ft | 417 kts | 215° |
| 2026-04-15 13:01 | 46.89043 | -2.33627 | 35198 ft | 419 kts | 215° |
| 2026-04-15 13:01 | 46.84043 | -2.38026 | 35200 ft | 419 kts | 215° |
| 2026-04-15 13:02 | 46.79043 | -2.42416 | 35198 ft | 420 kts | 215° |
| 2026-04-15 13:02 | 46.74037 | -2.46799 | 35204 ft | 419 kts | 215° |
| 2026-04-15 13:03 | 46.69050 | -2.51155 | 35203 ft | 417 kts | 215° |
| 2026-04-15 13:03 | 46.64066 | -2.55503 | 35203 ft | 417 kts | 215° |
| 2026-04-15 13:04 | 46.59080 | -2.59843 | 35205 ft | 417 kts | 215° |
| 2026-04-15 13:04 | 46.54095 | -2.64173 | 35206 ft | 418 kts | 215° |
| 2026-04-15 13:05 | 46.49099 | -2.68504 | 35208 ft | 419 kts | 215° |
| 2026-04-15 13:05 | 46.44076 | -2.72848 | 35211 ft | 420 kts | 215° |
| 2026-04-15 13:06 | 46.39053 | -2.77181 | 35211 ft | 420 kts | 215° |
| 2026-04-15 13:06 | 46.34059 | -2.81480 | 35231 ft | 420 kts | 215° |
| 2026-04-15 13:07 | 46.29040 | -2.85792 | 35213 ft | 420 kts | 215° |
| 2026-04-15 13:07 | 46.24017 | -2.90117 | 35214 ft | 420 kts | 216° |
| 2026-04-15 13:08 | 46.19013 | -2.94481 | 35216 ft | 420 kts | 216° |
| 2026-04-15 13:08 | 46.14008 | -2.98847 | 35217 ft | 420 kts | 216° |
| 2026-04-15 13:09 | 46.08997 | -3.03201 | 35221 ft | 422 kts | 216° |
| 2026-04-15 13:09 | 46.03962 | -3.07563 | 35219 ft | 423 kts | 216° |
| 2026-04-15 13:10 | 45.98952 | -3.11889 | 35221 ft | 423 kts | 215° |
| 2026-04-15 13:10 | 45.93908 | -3.16236 | 35246 ft | 423 kts | 216° |
| 2026-04-15 13:11 | 45.88868 | -3.20571 | 35222 ft | 422 kts | 216° |
| 2026-04-15 13:11 | 45.83825 | -3.24900 | 35224 ft | 422 kts | 216° |
| 2026-04-15 13:12 | 45.78783 | -3.29219 | 35225 ft | 422 kts | 216° |
| 2026-04-15 13:12 | 45.73744 | -3.33526 | 35222 ft | 422 kts | 216° |
| 2026-04-15 13:13 | 45.68695 | -3.37834 | 35227 ft | 423 kts | 215° |
| 2026-04-15 13:13 | 45.63622 | -3.42152 | 35233 ft | 424 kts | 215° |
| 2026-04-15 13:14 | 45.58549 | -3.46460 | 35230 ft | 424 kts | 215° |
| 2026-04-15 13:14 | 45.53472 | -3.50762 | 35249 ft | 424 kts | 215° |
| 2026-04-15 13:15 | 45.48397 | -3.55053 | 35236 ft | 424 kts | 216° |
| 2026-04-15 13:15 | 45.43327 | -3.59332 | 35235 ft | 423 kts | 216° |
| 2026-04-15 13:16 | 45.38256 | -3.63602 | 35235 ft | 424 kts | 216° |
| 2026-04-15 13:16 | 45.33211 | -3.67842 | 35235 ft | 424 kts | 215° |
| 2026-04-15 13:17 | 45.28131 | -3.72103 | 35233 ft | 425 kts | 215° |
| 2026-04-15 13:17 | 45.23031 | -3.76372 | 35238 ft | 426 kts | 215° |
| 2026-04-15 13:18 | 45.17924 | -3.80635 | 35237 ft | 426 kts | 215° |
| 2026-04-15 13:18 | 45.12820 | -3.84888 | 35242 ft | 426 kts | 215° |
| 2026-04-15 13:19 | 45.07714 | -3.89134 | 35238 ft | 426 kts | 215° |
| 2026-04-15 13:19 | 45.03471 | -3.92656 | 35238 ft | 425 kts | 215° |
| 2026-04-15 13:20 | 44.97528 | -3.97578 | 35241 ft | 426 kts | 215° |
| 2026-04-15 13:20 | 44.93244 | -4.01120 | 35241 ft | 426 kts | 215° |
| 2026-04-15 13:21 | 44.88164 | -4.05311 | 35244 ft | 426 kts | 215° |
| 2026-04-15 13:21 | 44.83032 | -4.09536 | 35244 ft | 427 kts | 215° |
| 2026-04-15 13:22 | 44.77901 | -4.13751 | 35243 ft | 427 kts | 215° |
| 2026-04-15 13:22 | 44.72765 | -4.17960 | 35244 ft | 427 kts | 215° |
| 2026-04-15 13:23 | 44.67627 | -4.22164 | 35246 ft | 427 kts | 215° |
| 2026-04-15 13:23 | 44.62516 | -4.26336 | 35246 ft | 427 kts | 215° |
| 2026-04-15 13:24 | 44.57379 | -4.30522 | 35249 ft | 427 kts | 215° |
| 2026-04-15 13:24 | 44.52235 | -4.34704 | 35234 ft | 427 kts | 215° |
| 2026-04-15 13:25 | 44.47084 | -4.38884 | 35246 ft | 428 kts | 215° |
| 2026-04-15 13:25 | 44.41929 | -4.43058 | 35246 ft | 428 kts | 215° |
| 2026-04-15 13:26 | 44.36807 | -4.47290 | 35256 ft | 427 kts | 216° |
| 2026-04-15 13:26 | 44.31735 | -4.51625 | 35249 ft | 427 kts | 216° |
| 2026-04-15 13:27 | 44.26661 | -4.55952 | 35250 ft | 428 kts | 216° |
| 2026-04-15 13:27 | 44.21570 | -4.60259 | 35250 ft | 427 kts | 216° |
| 2026-04-15 13:28 | 44.16474 | -4.64549 | 35251 ft | 427 kts | 216° |
| 2026-04-15 13:28 | 44.11387 | -4.68821 | 35242 ft | 427 kts | 216° |
| 2026-04-15 13:29 | 44.06321 | -4.73068 | 35248 ft | 427 kts | 216° |
| 2026-04-15 13:29 | 44.01214 | -4.77340 | 35250 ft | 427 kts | 216° |
| 2026-04-15 13:30 | 43.96119 | -4.81595 | 35251 ft | 427 kts | 216° |
| 2026-04-15 13:30 | 43.91020 | -4.85844 | 35246 ft | 427 kts | 216° |
| 2026-04-15 13:31 | 43.85917 | -4.90087 | 35252 ft | 428 kts | 216° |
| 2026-04-15 13:31 | 43.80845 | -4.94297 | 35252 ft | 428 kts | 216° |
| 2026-04-15 13:32 | 43.75741 | -4.98525 | 35255 ft | 428 kts | 216° |
| 2026-04-15 13:32 | 43.70633 | -5.02747 | 35256 ft | 427 kts | 216° |
| 2026-04-15 13:33 | 43.65519 | -5.06966 | 35254 ft | 428 kts | 216° |
| 2026-04-15 13:33 | 43.60409 | -5.11174 | 35256 ft | 428 kts | 216° |
| 2026-04-15 13:34 | 43.55293 | -5.15378 | 35253 ft | 428 kts | 216° |
| 2026-04-15 13:34 | 43.50173 | -5.19575 | 35240 ft | 428 kts | 216° |
| 2026-04-15 13:35 | 43.45081 | -5.23743 | 35246 ft | 428 kts | 216° |
| 2026-04-15 13:35 | 43.39956 | -5.27929 | 35253 ft | 428 kts | 216° |
| 2026-04-15 13:36 | 43.34827 | -5.32107 | 35244 ft | 428 kts | 216° |
| 2026-04-15 13:36 | 43.29703 | -5.36277 | 35215 ft | 428 kts | 216° |
| 2026-04-15 13:37 | 43.24587 | -5.40431 | 35234 ft | 427 kts | 216° |
| 2026-04-15 13:37 | 43.19478 | -5.44572 | 35234 ft | 426 kts | 216° |
| 2026-04-15 13:38 | 43.14368 | -5.48705 | 35231 ft | 426 kts | 216° |
| 2026-04-15 13:38 | 43.09253 | -5.52836 | 35211 ft | 427 kts | 216° |
| 2026-04-15 13:39 | 43.04144 | -5.56950 | 35215 ft | 426 kts | 216° |
| 2026-04-15 13:39 | 42.99064 | -5.61033 | 35216 ft | 426 kts | 216° |
| 2026-04-15 13:40 | 42.93951 | -5.65136 | 35210 ft | 426 kts | 216° |
| 2026-04-15 13:40 | 42.88838 | -5.69233 | 35216 ft | 426 kts | 216° |
| 2026-04-15 13:41 | 42.83727 | -5.73317 | 35207 ft | 425 kts | 216° |
| 2026-04-15 13:41 | 42.78638 | -5.77373 | 35208 ft | 423 kts | 216° |
| 2026-04-15 13:42 | 42.73555 | -5.81422 | 35208 ft | 423 kts | 216° |
| 2026-04-15 13:42 | 42.68472 | -5.85464 | 35207 ft | 423 kts | 216° |
| 2026-04-15 13:43 | 42.63379 | -5.89504 | 35208 ft | 423 kts | 216° |
| 2026-04-15 13:43 | 42.58325 | -5.93505 | 35204 ft | 423 kts | 216° |
| 2026-04-15 13:44 | 42.53233 | -5.97528 | 35212 ft | 423 kts | 216° |
| 2026-04-15 13:44 | 42.48143 | -6.01542 | 35202 ft | 423 kts | 216° |
| 2026-04-15 13:45 | 42.43052 | -6.05549 | 35186 ft | 423 kts | 216° |
| 2026-04-15 13:47 | 42.22699 | -6.21496 | 35192 ft | 423 kts | 216° |
| 2026-04-15 13:47 | 42.17612 | -6.25461 | 35200 ft | 421 kts | 216° |
| 2026-04-15 13:48 | 42.12536 | -6.29411 | 35201 ft | 421 kts | 216° |
| 2026-04-15 13:48 | 42.07493 | -6.33329 | 35204 ft | 421 kts | 216° |
| 2026-04-15 13:49 | 42.02419 | -6.37264 | 35203 ft | 421 kts | 216° |
| 2026-04-15 13:49 | 41.97339 | -6.41197 | 35211 ft | 421 kts | 216° |
| 2026-04-15 13:50 | 41.92264 | -6.45118 | 35209 ft | 420 kts | 216° |
| 2026-04-15 13:50 | 41.87189 | -6.49031 | 35209 ft | 420 kts | 216° |
| 2026-04-15 13:51 | 41.82121 | -6.52932 | 35216 ft | 420 kts | 216° |
| 2026-04-15 13:51 | 41.77050 | -6.56829 | 35218 ft | 420 kts | 216° |
| 2026-04-15 13:52 | 41.71973 | -6.60723 | 35223 ft | 420 kts | 216° |
| 2026-04-15 13:52 | 41.66884 | -6.64553 | 35225 ft | 421 kts | 214° |
| 2026-04-15 13:53 | 41.61685 | -6.68196 | 35229 ft | 422 kts | 214° |
| 2026-04-15 13:53 | 41.56505 | -6.71783 | 35223 ft | 421 kts | 214° |
| 2026-04-15 13:54 | 41.51305 | -6.75415 | 35232 ft | 422 kts | 214° |
| 2026-04-15 13:54 | 41.46103 | -6.79067 | 35240 ft | 422 kts | 214° |
| 2026-04-15 13:55 | 41.40903 | -6.82716 | 35233 ft | 423 kts | 214° |
| 2026-04-15 13:55 | 41.35694 | -6.86363 | 35205 ft | 422 kts | 214° |
| 2026-04-15 13:56 | 41.30489 | -6.90000 | 35240 ft | 424 kts | 214° |
| 2026-04-15 13:56 | 41.25268 | -6.93644 | 35239 ft | 424 kts | 214° |
| 2026-04-15 13:57 | 41.20031 | -6.97289 | 35238 ft | 425 kts | 213° |
| 2026-04-15 13:57 | 41.14793 | -7.00926 | 35241 ft | 424 kts | 213° |
| 2026-04-15 13:58 | 41.09558 | -7.04558 | 35243 ft | 426 kts | 213° |
| 2026-04-15 13:58 | 41.04333 | -7.08290 | 35245 ft | 424 kts | 218° |
| 2026-04-15 13:59 | 40.99485 | -7.12686 | 35246 ft | 422 kts | 220° |
| 2026-04-15 13:59 | 40.94725 | -7.17219 | 35249 ft | 421 kts | 221° |
| 2026-04-15 14:00 | 40.89979 | -7.21765 | 35230 ft | 421 kts | 220° |
| 2026-04-15 14:00 | 40.85219 | -7.26305 | 35251 ft | 422 kts | 220° |
| 2026-04-15 14:01 | 40.78065 | -7.33090 | 35252 ft | 422 kts | 220° |
| 2026-04-15 14:02 | 40.73320 | -7.37577 | 35252 ft | 422 kts | 220° |
| 2026-04-15 14:02 | 40.68548 | -7.42083 | 35258 ft | 422 kts | 220° |
| 2026-04-15 14:03 | 40.63763 | -7.46592 | 35259 ft | 424 kts | 220° |
| 2026-04-15 14:03 | 40.58947 | -7.51127 | 35256 ft | 426 kts | 220° |
| 2026-04-15 14:04 | 40.54118 | -7.55663 | 35256 ft | 427 kts | 220° |
| 2026-04-15 14:04 | 40.49287 | -7.60192 | 35268 ft | 426 kts | 220° |
| 2026-04-15 14:05 | 40.44454 | -7.64714 | 35261 ft | 426 kts | 220° |
| 2026-04-15 14:05 | 40.39631 | -7.69219 | 35266 ft | 425 kts | 220° |
| 2026-04-15 14:06 | 40.34805 | -7.73719 | 35265 ft | 425 kts | 220° |
| 2026-04-15 14:06 | 40.29982 | -7.78208 | 35259 ft | 426 kts | 220° |
| 2026-04-15 14:07 | 40.25182 | -7.82669 | 35263 ft | 425 kts | 220° |
| 2026-04-15 14:07 | 40.20356 | -7.87145 | 35237 ft | 425 kts | 220° |
| 2026-04-15 14:08 | 40.15517 | -7.91624 | 35264 ft | 427 kts | 220° |
| 2026-04-15 14:08 | 40.10658 | -7.96115 | 35265 ft | 428 kts | 220° |
| 2026-04-15 14:09 | 40.06614 | -7.99846 | 35261 ft | 428 kts | 220° |
| 2026-04-15 14:09 | 40.01751 | -8.04325 | 35255 ft | 428 kts | 220° |
| 2026-04-15 14:10 | 39.96888 | -8.08798 | 35240 ft | 428 kts | 220° |
| 2026-04-15 14:10 | 39.92007 | -8.13279 | 35262 ft | 430 kts | 219° |
| 2026-04-15 14:11 | 39.87100 | -8.17775 | 35261 ft | 431 kts | 219° |
| 2026-04-15 14:11 | 39.82194 | -8.22261 | 35267 ft | 431 kts | 219° |
| 2026-04-15 14:12 | 39.77314 | -8.26716 | 35265 ft | 431 kts | 219° |
| 2026-04-15 14:12 | 39.72400 | -8.31194 | 35253 ft | 431 kts | 219° |
| 2026-04-15 14:13 | 39.67473 | -8.35677 | 35275 ft | 433 kts | 219° |
| 2026-04-15 14:13 | 39.62536 | -8.40161 | 35270 ft | 432 kts | 219° |
| 2026-04-15 14:14 | 39.57607 | -8.44629 | 35274 ft | 432 kts | 219° |
| 2026-04-15 14:14 | 39.52680 | -8.49089 | 35273 ft | 432 kts | 219° |
| 2026-04-15 14:15 | 39.47753 | -8.53540 | 35265 ft | 432 kts | 219° |
| 2026-04-15 14:15 | 39.42799 | -8.58007 | 35276 ft | 434 kts | 219° |
| 2026-04-15 14:16 | 39.37864 | -8.62450 | 35272 ft | 435 kts | 219° |
| 2026-04-15 14:16 | 39.32892 | -8.66917 | 35282 ft | 435 kts | 219° |
| 2026-04-15 14:17 | 39.27921 | -8.71375 | 35279 ft | 435 kts | 219° |
| 2026-04-15 14:17 | 39.22950 | -8.75826 | 35288 ft | 435 kts | 218° |
| 2026-04-15 14:18 | 39.17970 | -8.80279 | 35298 ft | 436 kts | 218° |
| 2026-04-15 14:18 | 39.12986 | -8.84727 | 35282 ft | 436 kts | 218° |
| 2026-04-15 14:19 | 39.07995 | -8.89171 | 35280 ft | 436 kts | 218° |
| 2026-04-15 14:19 | 39.03007 | -8.93605 | 35298 ft | 436 kts | 218° |
| 2026-04-15 14:20 | 38.98037 | -8.98018 | 35291 ft | 437 kts | 218° |
| 2026-04-15 14:20 | 38.93025 | -9.02460 | 35292 ft | 438 kts | 218° |
| 2026-04-15 14:21 | 38.87999 | -9.06900 | 35293 ft | 439 kts | 218° |
| 2026-04-15 14:21 | 38.82925 | -9.11255 | 35293 ft | 439 kts | 217° |
| 2026-04-15 14:22 | 38.77836 | -9.15570 | 35295 ft | 438 kts | 217° |
| 2026-04-15 14:22 | 38.72757 | -9.19886 | 35289 ft | 439 kts | 217° |
| 2026-04-15 14:23 | 38.67665 | -9.24220 | 35293 ft | 440 kts | 217° |
| 2026-04-15 14:23 | 38.62564 | -9.28557 | 35297 ft | 440 kts | 217° |
| 2026-04-15 14:24 | 38.57460 | -9.32890 | 35296 ft | 440 kts | 217° |
| 2026-04-15 14:24 | 38.52353 | -9.37215 | 35297 ft | 440 kts | 217° |
| 2026-04-15 14:25 | 38.47279 | -9.41507 | 35300 ft | 441 kts | 216° |
| 2026-04-15 14:25 | 38.42151 | -9.45837 | 35300 ft | 442 kts | 216° |
| 2026-04-15 14:26 | 38.37027 | -9.50154 | 35302 ft | 441 kts | 216° |
| 2026-04-15 14:26 | 38.31900 | -9.54467 | 35306 ft | 441 kts | 216° |
| 2026-04-15 14:27 | 38.26780 | -9.58767 | 35302 ft | 441 kts | 216° |
| 2026-04-15 14:27 | 38.21645 | -9.63073 | 35304 ft | 443 kts | 216° |
| 2026-04-15 14:28 | 38.16496 | -9.67382 | 35305 ft | 443 kts | 216° |
| 2026-04-15 14:28 | 38.11344 | -9.71687 | 35307 ft | 443 kts | 216° |
| 2026-04-15 14:29 | 38.06188 | -9.75987 | 35303 ft | 443 kts | 216° |
| 2026-04-15 14:29 | 38.01069 | -9.80249 | 35304 ft | 443 kts | 216° |
| 2026-04-15 14:30 | 37.95907 | -9.84540 | 35308 ft | 443 kts | 216° |
| 2026-04-15 14:30 | 37.90754 | -9.88816 | 35307 ft | 442 kts | 216° |
| 2026-04-15 14:31 | 37.85603 | -9.93083 | 35302 ft | 442 kts | 216° |
| 2026-04-15 14:31 | 37.80449 | -9.97346 | 35304 ft | 442 kts | 216° |
| 2026-04-15 14:32 | 37.75298 | -10.01599 | 35298 ft | 442 kts | 216° |
| 2026-04-15 14:32 | 37.70136 | -10.05854 | 35306 ft | 444 kts | 216° |
| 2026-04-15 14:33 | 37.64963 | -10.10110 | 35303 ft | 444 kts | 216° |
| 2026-04-15 14:33 | 37.59820 | -10.14335 | 35303 ft | 444 kts | 216° |
| 2026-04-15 14:34 | 37.54640 | -10.18583 | 35304 ft | 444 kts | 216° |
| 2026-04-15 14:34 | 37.49464 | -10.22820 | 35298 ft | 444 kts | 215° |
| 2026-04-15 14:35 | 37.44279 | -10.27059 | 35304 ft | 445 kts | 215° |
| 2026-04-15 14:35 | 37.39086 | -10.31296 | 35306 ft | 445 kts | 215° |
| 2026-04-15 14:36 | 37.33881 | -10.35535 | 35306 ft | 445 kts | 215° |
| 2026-04-15 14:36 | 37.28719 | -10.39733 | 35306 ft | 445 kts | 215° |
| 2026-04-15 14:37 | 37.23518 | -10.43956 | 35300 ft | 445 kts | 215° |
| 2026-04-15 14:37 | 37.18313 | -10.48175 | 35303 ft | 446 kts | 215° |
| 2026-04-15 14:38 | 37.13099 | -10.52394 | 35300 ft | 446 kts | 215° |
| 2026-04-15 14:38 | 37.07884 | -10.56606 | 35300 ft | 446 kts | 215° |
| 2026-04-15 14:39 | 37.02669 | -10.60812 | 35305 ft | 446 kts | 215° |
| 2026-04-15 14:39 | 36.97453 | -10.65011 | 35303 ft | 446 kts | 215° |
| 2026-04-15 14:40 | 36.92263 | -10.69183 | 35304 ft | 447 kts | 215° |
| 2026-04-15 14:40 | 36.87036 | -10.73378 | 35304 ft | 447 kts | 215° |
| 2026-04-15 14:41 | 36.81808 | -10.77567 | 35303 ft | 447 kts | 215° |
| 2026-04-15 14:41 | 36.76572 | -10.81754 | 35303 ft | 447 kts | 215° |
| 2026-04-15 14:42 | 36.71338 | -10.85934 | 35294 ft | 447 kts | 215° |
| 2026-04-15 14:42 | 36.66097 | -10.90112 | 35301 ft | 447 kts | 214° |
| 2026-04-15 14:43 | 36.60853 | -10.94286 | 35301 ft | 447 kts | 214° |
| 2026-04-15 14:43 | 36.55608 | -10.98454 | 35301 ft | 447 kts | 214° |
| 2026-04-15 14:44 | 36.50359 | -11.02618 | 35301 ft | 447 kts | 214° |
| 2026-04-15 14:44 | 36.45108 | -11.06777 | 35300 ft | 448 kts | 214° |
| 2026-04-15 14:45 | 36.39853 | -11.10933 | 35298 ft | 448 kts | 214° |
| 2026-04-15 14:45 | 36.34595 | -11.15083 | 35298 ft | 448 kts | 214° |
| 2026-04-15 14:46 | 36.29338 | -11.19227 | 35295 ft | 448 kts | 214° |
| 2026-04-15 14:46 | 36.24114 | -11.23338 | 35295 ft | 448 kts | 214° |
| 2026-04-15 14:47 | 36.18854 | -11.27470 | 35290 ft | 448 kts | 214° |
| 2026-04-15 14:47 | 36.13594 | -11.31595 | 35300 ft | 447 kts | 214° |
| 2026-04-15 14:48 | 36.08334 | -11.35715 | 35293 ft | 447 kts | 214° |
| 2026-04-15 14:48 | 36.03067 | -11.39833 | 35291 ft | 447 kts | 214° |
| 2026-04-15 14:49 | 35.97803 | -11.43942 | 35294 ft | 447 kts | 214° |
| 2026-04-15 14:49 | 35.92618 | -11.48170 | 35288 ft | 446 kts | 217° |
| 2026-04-15 14:50 | 35.87588 | -11.52678 | 35288 ft | 446 kts | 218° |
| 2026-04-15 14:50 | 35.82569 | -11.57186 | 35290 ft | 446 kts | 218° |
| 2026-04-15 14:51 | 35.77522 | -11.61646 | 35293 ft | 446 kts | 217° |
| 2026-04-15 14:51 | 35.72457 | -11.66078 | 35294 ft | 446 kts | 217° |
| 2026-04-15 14:52 | 35.67425 | -11.70469 | 35282 ft | 446 kts | 217° |
| 2026-04-15 14:52 | 35.62357 | -11.74886 | 35280 ft | 447 kts | 217° |
| 2026-04-15 14:53 | 35.57278 | -11.79307 | 35286 ft | 447 kts | 217° |
| 2026-04-15 14:53 | 35.52198 | -11.83724 | 35301 ft | 447 kts | 217° |
| 2026-04-15 14:54 | 35.47118 | -11.88133 | 35286 ft | 447 kts | 217° |
| 2026-04-15 14:54 | 35.42039 | -11.92535 | 35282 ft | 447 kts | 217° |
| 2026-04-15 14:55 | 35.36954 | -11.96934 | 35282 ft | 447 kts | 217° |
| 2026-04-15 14:55 | 35.31865 | -12.01330 | 35298 ft | 447 kts | 217° |
| 2026-04-15 14:56 | 35.27637 | -12.04977 | 35284 ft | 447 kts | 217° |
| 2026-04-15 14:56 | 35.21722 | -12.10071 | 35281 ft | 447 kts | 217° |
| 2026-04-15 14:57 | 35.16634 | -12.14446 | 35281 ft | 447 kts | 217° |
| 2026-04-15 14:57 | 35.12409 | -12.18073 | 35290 ft | 447 kts | 216° |
| 2026-04-15 14:58 | 35.07307 | -12.22448 | 35290 ft | 448 kts | 216° |
| 2026-04-15 14:58 | 35.02199 | -12.26820 | 35268 ft | 448 kts | 216° |
| 2026-04-15 14:59 | 34.97085 | -12.31190 | 35283 ft | 448 kts | 216° |
| 2026-04-15 14:59 | 34.91972 | -12.35554 | 35287 ft | 448 kts | 216° |
| 2026-04-15 15:00 | 34.86859 | -12.39910 | 35282 ft | 448 kts | 216° |
| 2026-04-15 15:00 | 34.81774 | -12.44237 | 35282 ft | 449 kts | 216° |
| 2026-04-15 15:01 | 34.76643 | -12.48595 | 35284 ft | 449 kts | 216° |
| 2026-04-15 15:01 | 34.71509 | -12.52949 | 35265 ft | 450 kts | 216° |
| 2026-04-15 15:02 | 34.66373 | -12.57297 | 35281 ft | 450 kts | 216° |
| 2026-04-15 15:02 | 34.61234 | -12.61643 | 35262 ft | 450 kts | 216° |
| 2026-04-15 15:03 | 34.56095 | -12.65981 | 35273 ft | 450 kts | 216° |
| 2026-04-15 15:03 | 34.50977 | -12.70295 | 35273 ft | 451 kts | 216° |
| 2026-04-15 15:04 | 34.45819 | -12.74636 | 35269 ft | 451 kts | 216° |
| 2026-04-15 15:04 | 34.40666 | -12.78966 | 35273 ft | 451 kts | 215° |
| 2026-04-15 15:05 | 34.35509 | -12.83293 | 35272 ft | 451 kts | 215° |
| 2026-04-15 15:05 | 34.30346 | -12.87618 | 35263 ft | 451 kts | 215° |
| 2026-04-15 15:06 | 34.22595 | -12.94113 | 35265 ft | 452 kts | 215° |
| 2026-04-15 15:06 | 34.17441 | -12.98466 | 35266 ft | 452 kts | 215° |
| 2026-04-15 15:07 | 34.12290 | -13.02814 | 35260 ft | 452 kts | 215° |
| 2026-04-15 15:07 | 34.07131 | -13.07156 | 35268 ft | 452 kts | 215° |
| 2026-04-15 15:08 | 34.02005 | -13.11462 | 35263 ft | 452 kts | 214° |
| 2026-04-15 15:08 | 33.96839 | -13.15793 | 35261 ft | 452 kts | 214° |
| 2026-04-15 15:09 | 33.91666 | -13.20124 | 35257 ft | 453 kts | 214° |
| 2026-04-15 15:09 | 33.86493 | -13.24448 | 35260 ft | 453 kts | 214° |
| 2026-04-15 15:10 | 33.81315 | -13.28770 | 35262 ft | 453 kts | 214° |
| 2026-04-15 15:10 | 33.76130 | -13.33091 | 35260 ft | 453 kts | 214° |
| 2026-04-15 15:11 | 33.70947 | -13.37405 | 35260 ft | 453 kts | 214° |
| 2026-04-15 15:11 | 33.65766 | -13.41710 | 35252 ft | 453 kts | 214° |
| 2026-04-15 15:12 | 33.60615 | -13.45984 | 35255 ft | 453 kts | 214° |
| 2026-04-15 15:12 | 33.55427 | -13.50282 | 35263 ft | 453 kts | 213° |
| 2026-04-15 15:13 | 33.50236 | -13.54577 | 35243 ft | 454 kts | 213° |
| 2026-04-15 15:13 | 33.45039 | -13.58870 | 35253 ft | 454 kts | 213° |
| 2026-04-15 15:14 | 33.39835 | -13.63162 | 35238 ft | 454 kts | 213° |
| 2026-04-15 15:14 | 33.34632 | -13.67447 | 35251 ft | 454 kts | 213° |
| 2026-04-15 15:15 | 33.29430 | -13.71725 | 35237 ft | 454 kts | 213° |
| 2026-04-15 15:15 | 33.24227 | -13.75998 | 35252 ft | 454 kts | 213° |
| 2026-04-15 15:16 | 33.19020 | -13.80268 | 35246 ft | 454 kts | 213° |
| 2026-04-15 15:16 | 33.13813 | -13.84532 | 35242 ft | 454 kts | 212° |
| 2026-04-15 15:17 | 33.08629 | -13.88742 | 35242 ft | 454 kts | 212° |
| 2026-04-15 15:17 | 33.03368 | -13.93002 | 35242 ft | 454 kts | 212° |
| 2026-04-15 15:18 | 32.98170 | -13.97210 | 35238 ft | 454 kts | 212° |
| 2026-04-15 15:18 | 32.92939 | -14.01439 | 35243 ft | 455 kts | 212° |
| 2026-04-15 15:19 | 32.87704 | -14.05666 | 35237 ft | 455 kts | 212° |
| 2026-04-15 15:19 | 32.82470 | -14.09886 | 35237 ft | 454 kts | 212° |
| 2026-04-15 15:20 | 32.77231 | -14.14103 | 35236 ft | 454 kts | 212° |
| 2026-04-15 15:20 | 32.71993 | -14.18314 | 35236 ft | 454 kts | 212° |
| 2026-04-15 15:21 | 32.66754 | -14.22520 | 35243 ft | 455 kts | 212° |
| 2026-04-15 15:21 | 32.61504 | -14.26728 | 35232 ft | 456 kts | 211° |
| 2026-04-15 15:22 | 32.56237 | -14.30944 | 35231 ft | 457 kts | 211° |
| 2026-04-15 15:22 | 32.51001 | -14.35129 | 35230 ft | 457 kts | 211° |
| 2026-04-15 15:23 | 32.45732 | -14.39334 | 35227 ft | 457 kts | 211° |
| 2026-04-15 15:23 | 32.40462 | -14.43535 | 35230 ft | 457 kts | 211° |
| 2026-04-15 15:24 | 32.35189 | -14.47731 | 35227 ft | 457 kts | 211° |
| 2026-04-15 15:24 | 32.29915 | -14.51922 | 35231 ft | 457 kts | 211° |
| 2026-04-15 15:25 | 32.24633 | -14.56115 | 35227 ft | 457 kts | 211° |
| 2026-04-15 15:25 | 32.19379 | -14.60277 | 35220 ft | 458 kts | 211° |
| 2026-04-15 15:26 | 32.14074 | -14.64475 | 35220 ft | 460 kts | 211° |
| 2026-04-15 15:26 | 32.08760 | -14.68675 | 35221 ft | 460 kts | 211° |
| 2026-04-15 15:27 | 32.03444 | -14.72870 | 35219 ft | 460 kts | 211° |
| 2026-04-15 15:27 | 31.98127 | -14.77059 | 35219 ft | 460 kts | 211° |
| 2026-04-15 15:28 | 31.92798 | -14.81253 | 35216 ft | 460 kts | 211° |
| 2026-04-15 15:28 | 31.87470 | -14.85439 | 35217 ft | 460 kts | 211° |
| 2026-04-15 15:29 | 31.82139 | -14.89621 | 35211 ft | 460 kts | 211° |
| 2026-04-15 15:29 | 31.76841 | -14.93773 | 35220 ft | 460 kts | 211° |
| 2026-04-15 15:30 | 31.71507 | -14.97946 | 35215 ft | 461 kts | 211° |
| 2026-04-15 15:30 | 31.66161 | -15.02123 | 35211 ft | 462 kts | 211° |
| 2026-04-15 15:31 | 31.60809 | -15.06299 | 35206 ft | 462 kts | 211° |
| 2026-04-15 15:31 | 31.55456 | -15.10470 | 35205 ft | 461 kts | 211° |
| 2026-04-15 15:32 | 31.50104 | -15.14634 | 35205 ft | 462 kts | 211° |
| 2026-04-15 15:32 | 31.44751 | -15.18792 | 35200 ft | 462 kts | 211° |
| 2026-04-15 15:33 | 31.39395 | -15.22949 | 35203 ft | 462 kts | 211° |
| 2026-04-15 15:33 | 31.34044 | -15.27095 | 35200 ft | 461 kts | 211° |
| 2026-04-15 15:34 | 31.28674 | -15.31216 | 35196 ft | 461 kts | 208° |
| 2026-04-15 15:34 | 31.23046 | -15.34772 | 35198 ft | 460 kts | 206° |
| 2026-04-15 15:35 | 31.17433 | -15.38274 | 35200 ft | 460 kts | 206° |
| 2026-04-15 15:35 | 31.11804 | -15.41834 | 35202 ft | 460 kts | 206° |
| 2026-04-15 15:36 | 31.06186 | -15.45401 | 35194 ft | 459 kts | 206° |
| 2026-04-15 15:36 | 31.00575 | -15.48964 | 35193 ft | 459 kts | 206° |
| 2026-04-15 15:37 | 30.94970 | -15.52520 | 35198 ft | 459 kts | 206° |
| 2026-04-15 15:37 | 30.89359 | -15.56075 | 35191 ft | 459 kts | 206° |
| 2026-04-15 15:38 | 30.83745 | -15.59627 | 35205 ft | 459 kts | 206° |
| 2026-04-15 15:38 | 30.78167 | -15.63152 | 35189 ft | 459 kts | 207° |
| 2026-04-15 15:39 | 30.72551 | -15.66696 | 35195 ft | 459 kts | 206° |
| 2026-04-15 15:39 | 30.66924 | -15.70243 | 35194 ft | 460 kts | 206° |
| 2026-04-15 15:40 | 30.61293 | -15.73787 | 35190 ft | 461 kts | 206° |
| 2026-04-15 15:40 | 30.55658 | -15.77329 | 35190 ft | 460 kts | 206° |
| 2026-04-15 15:41 | 30.50021 | -15.80868 | 35188 ft | 460 kts | 207° |
| 2026-04-15 15:41 | 30.44395 | -15.84394 | 35187 ft | 459 kts | 207° |
| 2026-04-15 15:42 | 30.38775 | -15.87913 | 35186 ft | 456 kts | 207° |
| 2026-04-15 15:42 | 30.33256 | -15.91365 | 35188 ft | 448 kts | 207° |
| 2026-04-15 15:43 | 30.27773 | -15.94788 | 35182 ft | 448 kts | 207° |
| 2026-04-15 15:43 | 30.22288 | -15.98208 | 35184 ft | 448 kts | 207° |
| 2026-04-15 15:44 | 30.16844 | -16.01600 | 35182 ft | 448 kts | 207° |
| 2026-04-15 15:44 | 30.11345 | -16.05020 | 35175 ft | 449 kts | 207° |
| 2026-04-15 15:45 | 30.05839 | -16.08441 | 35179 ft | 449 kts | 207° |
| 2026-04-15 15:45 | 30.01231 | -16.11301 | 35179 ft | 449 kts | 207° |
| 2026-04-15 15:46 | 29.95763 | -16.14690 | 35179 ft | 449 kts | 207° |
| 2026-04-15 15:46 | 29.90258 | -16.18098 | 35174 ft | 449 kts | 207° |
| 2026-04-15 15:47 | 29.84762 | -16.21496 | 35176 ft | 448 kts | 207° |
| 2026-04-15 15:47 | 29.79264 | -16.24891 | 34877 ft | 446 kts | 207° |
| 2026-04-15 15:48 | 29.76532 | -16.26576 | 34450 ft | 444 kts | 207° |
| 2026-04-15 15:48 | 29.73813 | -16.28253 | 33986 ft | 442 kts | 207° |
| 2026-04-15 15:48 | 29.71115 | -16.29916 | 33500 ft | 439 kts | 207° |
| 2026-04-15 15:48 | 29.68424 | -16.31572 | 33039 ft | 439 kts | 206° |
| 2026-04-15 15:49 | 29.65726 | -16.33233 | 32576 ft | 440 kts | 206° |
| 2026-04-15 15:49 | 29.63022 | -16.34895 | 32133 ft | 442 kts | 206° |
| 2026-04-15 15:49 | 29.60308 | -16.36579 | 31689 ft | 444 kts | 208° |
| 2026-04-15 15:49 | 29.57752 | -16.38588 | 31255 ft | 447 kts | 217° |
| 2026-04-15 15:50 | 29.55328 | -16.40838 | 30811 ft | 449 kts | 218° |
| 2026-04-15 15:50 | 29.52913 | -16.43130 | 30387 ft | 451 kts | 218° |
| 2026-04-15 15:50 | 29.50524 | -16.45397 | 29898 ft | 451 kts | 218° |
| 2026-04-15 15:50 | 29.48076 | -16.47715 | 29399 ft | 449 kts | 217° |
| 2026-04-15 15:51 | 29.45676 | -16.49981 | 28892 ft | 445 kts | 218° |
| 2026-04-15 15:51 | 29.43298 | -16.52225 | 28399 ft | 441 kts | 217° |
| 2026-04-15 15:51 | 29.40969 | -16.54419 | 27894 ft | 437 kts | 217° |
| 2026-04-15 15:51 | 29.38623 | -16.56627 | 27402 ft | 434 kts | 218° |
| 2026-04-15 15:52 | 29.36271 | -16.58839 | 26915 ft | 430 kts | 217° |
| 2026-04-15 15:52 | 29.33996 | -16.60977 | 26448 ft | 427 kts | 217° |
| 2026-04-15 15:52 | 29.31709 | -16.63124 | 25991 ft | 423 kts | 217° |
| 2026-04-15 15:52 | 29.29408 | -16.65284 | 25523 ft | 420 kts | 217° |
| 2026-04-15 15:53 | 29.27187 | -16.67368 | 25075 ft | 417 kts | 217° |
| 2026-04-15 15:53 | 29.24948 | -16.69466 | 24631 ft | 414 kts | 217° |
| 2026-04-15 15:53 | 29.22731 | -16.71544 | 24209 ft | 411 kts | 217° |
| 2026-04-15 15:53 | 29.20530 | -16.73605 | 23771 ft | 408 kts | 217° |
| 2026-04-15 15:54 | 29.18341 | -16.75654 | 23262 ft | 405 kts | 217° |
| 2026-04-15 15:54 | 29.16162 | -16.77692 | 22771 ft | 403 kts | 217° |
| 2026-04-15 15:54 | 29.13999 | -16.79713 | 22261 ft | 400 kts | 217° |
| 2026-04-15 15:54 | 29.11850 | -16.81721 | 21774 ft | 398 kts | 217° |
| 2026-04-15 15:55 | 29.09708 | -16.83721 | 21290 ft | 396 kts | 217° |
| 2026-04-15 15:55 | 29.07582 | -16.85704 | 20807 ft | 393 kts | 217° |
| 2026-04-15 15:55 | 29.05468 | -16.87676 | 20337 ft | 391 kts | 217° |
| 2026-04-15 15:55 | 29.03368 | -16.89634 | 19882 ft | 389 kts | 217° |
| 2026-04-15 15:56 | 29.01278 | -16.91580 | 19433 ft | 386 kts | 217° |
| 2026-04-15 15:56 | 28.99201 | -16.93514 | 18986 ft | 384 kts | 217° |
| 2026-04-15 15:56 | 28.97135 | -16.95437 | 18549 ft | 382 kts | 218° |
| 2026-04-15 15:56 | 28.95076 | -16.97352 | 18047 ft | 380 kts | 218° |
| 2026-04-15 15:57 | 28.93029 | -16.99255 | 17570 ft | 378 kts | 218° |
| 2026-04-15 15:57 | 28.90997 | -17.01143 | 17079 ft | 376 kts | 218° |
| 2026-04-15 15:57 | 28.88973 | -17.03023 | 16602 ft | 374 kts | 218° |
| 2026-04-15 15:57 | 28.86962 | -17.04889 | 16146 ft | 371 kts | 218° |
| 2026-04-15 15:58 | 28.84973 | -17.06736 | 15668 ft | 363 kts | 218° |
| 2026-04-15 15:58 | 28.83098 | -17.08476 | 15225 ft | 340 kts | 218° |
| 2026-04-15 15:58 | 28.81315 | -17.10130 | 14799 ft | 321 kts | 218° |
| 2026-04-15 15:58 | 28.79625 | -17.11697 | 14428 ft | 308 kts | 218° |
| 2026-04-15 15:59 | 28.77966 | -17.13232 | 14067 ft | 307 kts | 218° |
| 2026-04-15 15:59 | 28.76304 | -17.14769 | 13712 ft | 307 kts | 218° |
| 2026-04-15 15:59 | 28.74644 | -17.16304 | 13356 ft | 307 kts | 218° |
| 2026-04-15 15:59 | 28.72989 | -17.17835 | 12999 ft | 306 kts | 218° |
| 2026-04-15 16:00 | 28.71336 | -17.19362 | 12645 ft | 305 kts | 218° |
| 2026-04-15 16:00 | 28.69687 | -17.20886 | 12297 ft | 305 kts | 218° |
| 2026-04-15 16:00 | 28.68043 | -17.22405 | 11951 ft | 304 kts | 218° |
| 2026-04-15 16:00 | 28.66400 | -17.23922 | 11606 ft | 303 kts | 218° |
| 2026-04-15 16:01 | 28.64765 | -17.25431 | 11284 ft | 302 kts | 218° |
| 2026-04-15 16:01 | 28.63155 | -17.26917 | 11164 ft | 293 kts | 218° |
| 2026-04-15 16:01 | 28.61592 | -17.28358 | 11151 ft | 288 kts | 218° |
| 2026-04-15 16:01 | 28.60037 | -17.29791 | 11145 ft | 287 kts | 218° |
| 2026-04-15 16:02 | 28.58483 | -17.31223 | 11147 ft | 287 kts | 218° |
| 2026-04-15 16:02 | 28.56893 | -17.32578 | 11141 ft | 286 kts | 211° |
| 2026-04-15 16:02 | 28.55085 | -17.33509 | 11146 ft | 287 kts | 195° |
| 2026-04-15 16:02 | 28.53093 | -17.33735 | 11152 ft | 290 kts | 176° |
| 2026-04-15 16:03 | 28.51100 | -17.33501 | 11147 ft | 287 kts | 180° |
| 2026-04-15 16:03 | 28.49099 | -17.33422 | 11149 ft | 288 kts | 178° |
| 2026-04-15 16:03 | 28.47140 | -17.33203 | 11142 ft | 286 kts | 174° |
| 2026-04-15 16:03 | 28.45177 | -17.32790 | 11134 ft | 287 kts | 168° |
| 2026-04-15 16:04 | 28.43249 | -17.32154 | 11137 ft | 290 kts | 162° |
| 2026-04-15 16:04 | 28.41350 | -17.31381 | 11136 ft | 289 kts | 165° |
| 2026-04-15 16:04 | 28.39410 | -17.30804 | 11138 ft | 288 kts | 169° |
| 2026-04-15 16:04 | 28.37463 | -17.30237 | 11135 ft | 290 kts | 164° |
| 2026-04-15 16:05 | 28.35631 | -17.29272 | 11132 ft | 293 kts | 149° |
| 2026-04-15 16:05 | 28.34117 | -17.27706 | 11132 ft | 298 kts | 129° |
| 2026-04-15 16:05 | 28.33004 | -17.25720 | 11131 ft | 300 kts | 122° |
| 2026-04-15 16:05 | 28.31975 | -17.23653 | 11132 ft | 301 kts | 122° |
| 2026-04-15 16:06 | 28.30943 | -17.21591 | 11130 ft | 300 kts | 123° |
| 2026-04-15 16:06 | 28.29895 | -17.19531 | 11131 ft | 301 kts | 124° |
| 2026-04-15 16:06 | 28.28841 | -17.17481 | 11130 ft | 301 kts | 123° |
| 2026-04-15 16:06 | 28.27798 | -17.15460 | 11129 ft | 292 kts | 123° |
| 2026-04-15 16:07 | 28.26790 | -17.13511 | 11095 ft | 282 kts | 123° |
| 2026-04-15 16:07 | 28.25788 | -17.11610 | 10805 ft | 281 kts | 126° |
| 2026-04-15 16:07 | 28.23537 | -17.07967 | 10201 ft | 283 kts | 128° |
| 2026-04-15 16:08 | 28.22397 | -17.06146 | 9890 ft | 283 kts | 129° |
| 2026-04-15 16:08 | 28.21277 | -17.04341 | 9535 ft | 284 kts | 128° |
| 2026-04-15 16:08 | 28.20148 | -17.02511 | 9219 ft | 283 kts | 127° |
| 2026-04-15 16:08 | 28.19021 | -17.00679 | 8895 ft | 283 kts | 127° |
| 2026-04-15 16:09 | 28.17895 | -16.98847 | 8570 ft | 283 kts | 127° |
| 2026-04-15 16:09 | 28.16596 | -16.97206 | 8230 ft | 279 kts | 146° |
| 2026-04-15 16:09 | 28.14886 | -16.96202 | 7930 ft | 276 kts | 159° |
| 2026-04-15 16:09 | 28.13099 | -16.95408 | 7609 ft | 275 kts | 160° |
| 2026-04-15 16:10 | 28.11334 | -16.94642 | 7298 ft | 266 kts | 160° |
| 2026-04-15 16:10 | 28.09659 | -16.93909 | 6995 ft | 251 kts | 159° |
| 2026-04-15 16:10 | 28.08056 | -16.93203 | 6698 ft | 246 kts | 159° |
| 2026-04-15 16:10 | 28.06458 | -16.92497 | 6395 ft | 247 kts | 159° |
| 2026-04-15 16:11 | 28.04853 | -16.91786 | 6153 ft | 245 kts | 159° |
| 2026-04-15 16:11 | 28.03233 | -16.91288 | 5955 ft | 241 kts | 176° |
| 2026-04-15 16:11 | 28.01626 | -16.91604 | 5711 ft | 239 kts | 205° |
| 2026-04-15 16:11 | 28.00378 | -16.92813 | 5472 ft | 240 kts | 235° |
| 2026-04-15 16:12 | 27.99617 | -16.94495 | 5231 ft | 241 kts | 246° |
| 2026-04-15 16:12 | 27.98974 | -16.96258 | 4992 ft | 243 kts | 247° |
| 2026-04-15 16:12 | 27.98335 | -16.98029 | 4743 ft | 243 kts | 247° |
| 2026-04-15 16:12 | 27.97691 | -16.99790 | 4490 ft | 242 kts | 247° |
| 2026-04-15 16:13 | 27.97044 | -17.01538 | 4240 ft | 241 kts | 247° |
| 2026-04-15 16:13 | 27.96396 | -17.03275 | 4013 ft | 238 kts | 247° |
| 2026-04-15 16:13 | 27.95747 | -17.04998 | 3991 ft | 239 kts | 246° |
| 2026-04-15 16:13 | 27.94870 | -17.06587 | 3990 ft | 239 kts | 227° |
| 2026-04-15 16:14 | 27.93539 | -17.07676 | 3987 ft | 238 kts | 200° |
| 2026-04-15 16:14 | 27.91923 | -17.07839 | 3986 ft | 235 kts | 166° |
| 2026-04-15 16:14 | 27.90492 | -17.06996 | 3994 ft | 234 kts | 142° |
| 2026-04-15 16:14 | 27.89248 | -17.05799 | 3988 ft | 236 kts | 134° |
| 2026-04-15 16:15 | 27.88273 | -17.04320 | 3980 ft | 235 kts | 115° |
| 2026-04-15 16:15 | 27.87898 | -17.02556 | 3982 ft | 231 kts | 85° |
| 2026-04-15 16:15 | 27.88277 | -17.00835 | 3987 ft | 225 kts | 69° |
| 2026-04-15 16:15 | 27.88856 | -16.99196 | 3977 ft | 226 kts | 67° |
| 2026-04-15 16:16 | 27.89477 | -16.97537 | 3978 ft | 232 kts | 66° |
| 2026-04-15 16:16 | 27.90108 | -16.95860 | 4001 ft | 227 kts | 66° |
| 2026-04-15 16:16 | 27.90704 | -16.94285 | 3995 ft | 212 kts | 66° |
| 2026-04-15 16:16 | 27.91283 | -16.92750 | 3986 ft | 212 kts | 67° |
| 2026-04-15 16:17 | 27.91858 | -16.91215 | 3981 ft | 212 kts | 67° |
| 2026-04-15 16:17 | 27.92426 | -16.89699 | 3977 ft | 212 kts | 66° |
| 2026-04-15 16:17 | 27.93001 | -16.88164 | 3972 ft | 212 kts | 67° |
| 2026-04-15 16:17 | 27.93577 | -16.86628 | 3975 ft | 212 kts | 67° |
| 2026-04-15 16:18 | 27.94175 | -16.85101 | 3981 ft | 212 kts | 65° |
| 2026-04-15 16:18 | 27.94799 | -16.83591 | 3980 ft | 212 kts | 64° |
| 2026-04-15 16:18 | 27.95425 | -16.82082 | 3980 ft | 210 kts | 65° |
| 2026-04-15 16:18 | 27.96018 | -16.80646 | 3986 ft | 195 kts | 65° |
| 2026-04-15 16:19 | 27.96583 | -16.79272 | 3908 ft | 191 kts | 65° |
| 2026-04-15 16:19 | 27.97138 | -16.77920 | 3652 ft | 187 kts | 64° |
| 2026-04-15 16:19 | 27.97681 | -16.76596 | 3394 ft | 184 kts | 66° |
| 2026-04-15 16:19 | 27.98153 | -16.75276 | 3114 ft | 177 kts | 67° |
| 2026-04-15 16:20 | 27.98582 | -16.74024 | 2990 ft | 167 kts | 67° |
| 2026-04-15 16:20 | 27.99016 | -16.72801 | 2837 ft | 167 kts | 66° |
| 2026-04-15 16:20 | 27.99458 | -16.71588 | 2610 ft | 166 kts | 67° |
| 2026-04-15 16:20 | 27.99878 | -16.70376 | 2393 ft | 164 kts | 68° |
| 2026-04-15 16:21 | 28.00292 | -16.69181 | 2181 ft | 160 kts | 65° |
| 2026-04-15 16:21 | 28.00690 | -16.68036 | 1920 ft | 155 kts | 64° |
| 2026-04-15 16:21 | 28.01081 | -16.66916 | 1713 ft | 152 kts | 65° |
| 2026-04-15 16:21 | 28.01454 | -16.65809 | 1495 ft | 148 kts | 66° |
| 2026-04-15 16:22 | 28.01833 | -16.64729 | 1322 ft | 145 kts | 64° |
| 2026-04-15 16:22 | 28.02181 | -16.63699 | 1114 ft | 137 kts | 68° |
| 2026-04-15 16:22 | 28.02515 | -16.62683 | 970 ft | 139 kts | 65° |
| 2026-04-15 16:22 | 28.02885 | -16.61671 | 797 ft | 139 kts | 66° |
| 2026-04-15 16:23 | 28.03252 | -16.60657 | 582 ft | 140 kts | 68° |
| 2026-04-15 16:23 | 28.03626 | -16.59598 | 383 ft | 150 kts | 70° |
| 2026-04-15 16:23 | 28.04002 | -16.58529 | 210 ft | 145 kts | 70° |
| 2026-04-15 16:23 | 28.04321 | -16.57604 | 209 ft | 105 kts | 68° |
| 2026-04-15 16:24 | 28.04550 | -16.56955 | 209 ft | 77 kts | 68° |
| 2026-04-15 16:24 | 28.04672 | -16.56624 | 218 ft | 18 kts | 60° |
| 2026-04-15 16:24 | 28.04744 | -16.56518 | 221 ft | 15 kts | 44° |
| 2026-04-15 16:24 | 28.04811 | -16.56449 | 218 ft | 11 kts | 43° |
| 2026-04-15 16:25 | 28.04858 | -16.56399 | 222 ft | 7 kts | 43° |
| 2026-04-15 16:25 | 28.04883 | -16.56373 | 227 ft | 4 kts | 41° |
| 2026-04-15 16:25 | 28.04908 | -16.56364 | 225 ft | 6 kts | 2° |
| 2026-04-15 16:25 | 28.04925 | -16.56419 | 225 ft | 11 kts | 259° |
| 2026-04-15 16:26 | 28.04894 | -16.56516 | 229 ft | 14 kts | 249° |
| 2026-04-15 16:26 | 28.04858 | -16.56623 | 225 ft | 15 kts | 249° |
| 2026-04-15 16:26 | 28.04817 | -16.56739 | 227 ft | 16 kts | 248° |
| 2026-04-15 16:26 | 28.04774 | -16.56860 | 225 ft | 17 kts | 248° |
| 2026-04-15 16:27 | 28.04734 | -16.56982 | 228 ft | 16 kts | 249° |
| 2026-04-15 16:27 | 28.04693 | -16.57099 | 230 ft | 16 kts | 247° |
| 2026-04-15 16:27 | 28.04643 | -16.57213 | 226 ft | 16 kts | 248° |
| 2026-04-15 16:27 | 28.04602 | -16.57334 | 226 ft | 15 kts | 249° |
| 2026-04-15 16:28 | 28.04611 | -16.57384 | 226 ft | 6 kts | 328° |
| 2026-04-15 16:28 | 28.04647 | -16.57401 | 227 ft | 0 kts | 338° |